createdAt,value
2017-11-12T00:01:33.719Z,5.93
2017-11-12T00:04:08.990Z,7.40
2017-11-12T00:06:42.715Z,7.23
2017-11-12T00:09:16.850Z,7.20
2017-11-12T00:11:51.661Z,7.50
2017-11-12T00:14:26.226Z,6.53
2017-11-12T00:17:00.628Z,5.93
2017-11-12T00:19:36.496Z,5.40
2017-11-12T00:22:10.878Z,6.43
2017-11-12T00:24:45.433Z,6.70
2017-11-12T00:27:20.212Z,8.30
2017-11-12T00:29:55.922Z,6.73
2017-11-12T00:32:29.563Z,5.87
2017-11-12T00:35:03.865Z,5.90
2017-11-12T00:37:37.686Z,5.50
2017-11-12T00:40:11.531Z,6.90
2017-11-12T00:42:46.322Z,5.80
2017-11-12T00:45:21.944Z,6.20
2017-11-12T00:47:55.634Z,6.23
2017-11-12T00:50:29.310Z,5.43
2017-11-12T00:53:03.709Z,5.10
2017-11-12T00:55:37.875Z,7.07
2017-11-12T00:58:13.342Z,6.53
2017-11-12T01:00:47.589Z,6.40
2017-11-12T01:03:22.268Z,4.40
2017-11-12T01:05:57.039Z,4.83
2017-11-12T01:08:32.388Z,4.73
2017-11-12T01:11:06.143Z,4.33
2017-11-12T01:13:40.147Z,4.60
2017-11-12T01:16:13.932Z,4.20
2017-11-12T01:18:47.858Z,5.53
2017-11-12T01:21:22.614Z,6.23
2017-11-12T01:23:56.607Z,5.20
2017-11-12T01:26:30.407Z,5.00
2017-11-12T01:29:04.148Z,6.37
2017-11-12T01:31:38.089Z,5.97
2017-11-12T01:34:11.756Z,7.67
2017-11-12T01:36:45.897Z,5.20
2017-11-12T01:39:20.723Z,6.20
2017-11-12T01:41:54.756Z,6.40
2017-11-12T01:44:29.281Z,7.03
2017-11-12T01:47:03.777Z,7.10
2017-11-12T01:49:38.874Z,6.23
2017-11-12T01:52:13.465Z,7.40
2017-11-12T01:54:48.255Z,7.20
2017-11-12T01:57:23.121Z,5.93
2017-11-12T01:59:57.038Z,7.00
2017-11-12T02:02:30.851Z,5.80
2017-11-12T02:05:04.665Z,6.53
2017-11-12T02:07:38.660Z,6.50
2017-11-12T02:10:12.509Z,6.40
2017-11-12T02:12:46.334Z,8.90
2017-11-12T02:15:20.054Z,7.90
2017-11-12T02:17:55.031Z,8.03
2017-11-12T02:20:28.613Z,7.30
2017-11-12T02:23:02.848Z,9.13
2017-11-12T02:25:37.370Z,9.43
2017-11-12T02:28:11.846Z,8.23
2017-11-12T02:30:46.639Z,8.23
2017-11-12T02:33:20.762Z,7.60
2017-11-12T02:35:54.497Z,8.23
2017-11-12T02:38:28.728Z,6.90
2017-11-12T02:41:03.121Z,7.53
2017-11-12T02:43:37.764Z,8.20
2017-11-12T02:46:11.806Z,8.20
2017-11-12T02:48:46.806Z,8.67
2017-11-12T02:51:22.255Z,7.93
2017-11-12T02:53:56.875Z,7.17
2017-11-12T02:56:31.310Z,8.07
2017-11-12T02:59:05.099Z,7.00
2017-11-12T03:01:38.755Z,7.67
2017-11-12T03:04:12.486Z,7.63
2017-11-12T03:06:46.346Z,7.33
2017-11-12T03:09:20.613Z,6.90
2017-11-12T03:11:54.254Z,7.23
2017-11-12T03:14:29.119Z,5.73
2017-11-12T03:17:03.394Z,6.67
2017-11-12T03:19:37.954Z,8.13
2017-11-12T03:22:13.627Z,7.83
2017-11-12T03:24:47.894Z,7.23
2017-11-12T03:27:22.031Z,6.87
2017-11-12T03:29:56.526Z,7.70
2017-11-12T03:32:31.072Z,7.17
2017-11-12T03:35:05.281Z,7.00
2017-11-12T03:37:39.164Z,6.33
2017-11-12T03:40:13.874Z,6.93
2017-11-12T03:42:47.842Z,7.43
2017-11-12T03:45:21.729Z,7.13
2017-11-12T03:47:56.386Z,6.60
2017-11-12T03:50:31.542Z,7.87
2017-11-12T03:53:06.047Z,6.53
2017-11-12T03:55:40.007Z,7.00
2017-11-12T03:58:14.576Z,6.80
2017-11-12T04:00:48.963Z,6.63
2017-11-12T04:03:24.280Z,6.70
2017-11-12T04:05:59.080Z,7.40
2017-11-12T04:08:33.028Z,5.70
2017-11-12T04:11:06.690Z,6.90
2017-11-12T04:13:41.225Z,7.23
2017-11-12T04:16:16.195Z,6.70
2017-11-12T04:18:51.910Z,6.97
2017-11-12T04:21:26.347Z,6.57
2017-11-12T04:24:00.567Z,6.97
2017-11-12T04:26:35.327Z,6.30
2017-11-12T04:29:10.395Z,6.23
2017-11-12T04:31:44.430Z,8.10
2017-11-12T04:34:18.927Z,6.50
2017-11-12T04:36:52.995Z,7.17
2017-11-12T04:39:27.265Z,7.00
2017-11-12T04:42:02.429Z,7.00
2017-11-12T04:44:36.700Z,7.40
2017-11-12T04:47:10.921Z,6.70
2017-11-12T04:49:45.818Z,8.03
2017-11-12T04:52:21.798Z,7.70
2017-11-12T04:54:55.442Z,8.03
2017-11-12T04:57:30.235Z,8.07
2017-11-12T05:00:04.550Z,7.63
2017-11-12T05:02:39.694Z,8.63
2017-11-12T05:05:13.615Z,7.63
2017-11-12T05:07:47.413Z,7.37
2017-11-12T05:10:21.082Z,8.70
2017-11-12T05:12:55.430Z,7.73
2017-11-12T05:15:29.451Z,7.50
2017-11-12T05:18:03.606Z,7.10
2017-11-12T05:20:37.974Z,6.70
2017-11-12T05:23:12.585Z,7.07
2017-11-12T05:25:46.990Z,8.60
2017-11-12T05:28:21.547Z,7.73
2017-11-12T05:30:55.472Z,8.60
2017-11-12T05:33:29.471Z,8.17
2017-11-12T05:36:03.799Z,8.10
2017-11-12T05:38:38.978Z,7.23
2017-11-12T05:41:14.265Z,8.37
2017-11-12T05:43:48.694Z,8.10
2017-11-12T05:46:23.055Z,8.73
2017-11-12T05:48:56.914Z,7.60
2017-11-12T05:51:30.706Z,7.60
2017-11-12T05:54:06.072Z,10.17
2017-11-12T05:56:40.372Z,8.33
2017-11-12T05:59:14.425Z,7.47
2017-11-12T06:01:48.294Z,8.37
2017-11-12T06:04:23.127Z,7.10
2017-11-12T06:06:57.646Z,8.13
2017-11-12T06:09:32.471Z,7.90
2017-11-12T06:12:07.504Z,10.23
2017-11-12T06:14:43.002Z,7.80
2017-11-12T06:17:17.689Z,8.20
2017-11-12T06:19:52.018Z,8.27
2017-11-12T06:22:27.021Z,7.63
2017-11-12T06:25:01.040Z,8.07
2017-11-12T06:27:36.411Z,9.00
2017-11-12T06:30:11.582Z,8.30
2017-11-12T06:32:47.234Z,9.80
2017-11-12T06:35:21.011Z,8.47
2017-11-12T06:37:55.787Z,9.13
2017-11-12T06:40:30.343Z,7.63
2017-11-12T06:43:04.632Z,9.50
2017-11-12T06:45:38.959Z,9.37
2017-11-12T06:48:13.492Z,8.90
2017-11-12T06:50:47.987Z,7.20
2017-11-12T06:53:22.423Z,8.60
2017-11-12T06:55:57.057Z,10.00
2017-11-12T06:58:30.650Z,9.80
2017-11-12T07:01:05.896Z,9.17
2017-11-12T07:03:40.004Z,9.97
2017-11-12T07:06:14.952Z,10.60
2017-11-12T07:08:48.778Z,10.13
2017-11-12T07:11:22.942Z,10.57
2017-11-12T07:13:58.034Z,11.20
2017-11-12T07:16:32.440Z,10.87
2017-11-12T07:19:06.975Z,12.60
2017-11-12T07:21:41.142Z,13.17
2017-11-12T07:24:15.490Z,11.90
2017-11-12T07:26:50.214Z,12.77
2017-11-12T07:29:24.737Z,12.97
2017-11-12T07:31:59.030Z,11.73
2017-11-12T07:34:33.242Z,13.77
2017-11-12T07:37:07.971Z,14.77
2017-11-12T07:39:42.257Z,13.83
2017-11-12T07:42:16.990Z,14.40
2017-11-12T07:44:51.386Z,14.67
2017-11-12T07:47:25.754Z,15.30
2017-11-12T07:50:00.173Z,14.93
2017-11-12T07:52:35.177Z,15.13
2017-11-12T07:55:09.280Z,17.13
2017-11-12T07:57:43.102Z,13.70
2017-11-12T08:00:17.851Z,15.00
2017-11-12T08:02:52.211Z,12.87
2017-11-12T08:05:26.022Z,19.77
2017-11-12T08:08:00.537Z,18.23
2017-11-12T08:10:34.553Z,20.03
2017-11-12T08:13:08.791Z,18.23
2017-11-12T08:15:42.839Z,18.93
2017-11-12T08:18:16.503Z,19.63
2017-11-12T08:20:50.600Z,19.23
2017-11-12T08:23:24.356Z,20.23
2017-11-12T08:26:00.393Z,23.30
2017-11-12T08:28:34.645Z,18.53
2017-11-12T08:31:09.621Z,21.63
2017-11-12T08:33:43.734Z,23.17
2017-11-12T08:36:18.214Z,21.27
2017-11-12T08:38:53.298Z,23.80
2017-11-12T08:41:28.059Z,24.03
2017-11-12T08:44:02.016Z,22.90
2017-11-12T08:46:35.803Z,20.50
2017-11-12T08:49:10.726Z,19.53
2017-11-12T08:51:44.810Z,22.53
2017-11-12T08:54:20.042Z,21.13
2017-11-12T08:56:54.212Z,20.00
2017-11-12T08:59:27.931Z,20.90
2017-11-12T09:02:01.689Z,20.20
2017-11-12T09:04:35.575Z,20.57
2017-11-12T09:07:09.531Z,19.83
2017-11-12T09:09:43.283Z,22.60
2017-11-12T09:12:17.034Z,21.33
2017-11-12T09:14:50.960Z,21.33
2017-11-12T09:17:24.669Z,20.50
2017-11-12T09:19:58.320Z,18.70
2017-11-12T09:22:31.985Z,19.70
2017-11-12T09:25:05.723Z,17.27
2017-11-12T09:27:39.805Z,16.33
2017-11-12T09:30:14.235Z,18.27
2017-11-12T09:32:48.472Z,19.00
2017-11-12T09:35:23.098Z,18.10
2017-11-12T09:37:58.071Z,19.00
2017-11-12T09:40:33.060Z,18.37
2017-11-12T09:43:08.047Z,16.00
2017-11-12T09:45:42.190Z,16.63
2017-11-12T09:48:16.326Z,18.20
2017-11-12T09:50:51.147Z,18.47
2017-11-12T09:53:25.838Z,17.80
2017-11-12T09:56:00.819Z,16.67
2017-11-12T09:58:35.262Z,15.07
2017-11-12T10:01:08.954Z,16.30
2017-11-12T10:03:43.510Z,14.90
2017-11-12T10:06:17.572Z,16.33
2017-11-12T10:08:51.274Z,16.17
2017-11-12T10:11:26.702Z,14.00
2017-11-12T10:14:00.871Z,16.13
2017-11-12T10:16:35.317Z,14.50
2017-11-12T10:19:09.382Z,15.30
2017-11-12T10:21:43.769Z,14.17
2017-11-12T10:24:17.774Z,13.87
2017-11-12T10:26:51.618Z,13.57
2017-11-12T10:29:25.296Z,14.83
2017-11-12T10:31:58.894Z,14.53
2017-11-12T10:34:32.542Z,13.70
2017-11-12T10:37:06.231Z,13.10
2017-11-12T10:39:39.869Z,11.40
2017-11-12T10:42:13.794Z,11.20
2017-11-12T10:44:48.389Z,11.23
2017-11-12T10:47:22.395Z,9.37
2017-11-12T10:49:56.496Z,9.87
2017-11-12T10:52:30.386Z,9.90
2017-11-12T10:55:04.770Z,8.90
2017-11-12T10:57:38.526Z,8.83
2017-11-12T11:00:12.182Z,9.60
2017-11-12T11:02:46.306Z,10.03
2017-11-12T11:05:20.071Z,8.93
2017-11-12T11:07:53.966Z,9.03
2017-11-12T11:10:28.977Z,9.17
2017-11-12T11:13:02.981Z,6.83
2017-11-12T11:15:36.871Z,8.97
2017-11-12T11:18:10.756Z,7.87
2017-11-12T11:20:45.707Z,6.40
2017-11-12T11:23:20.516Z,6.90
2017-11-12T11:25:55.356Z,8.40
2017-11-12T11:28:29.826Z,6.50
2017-11-12T11:31:04.306Z,7.27
2017-11-12T11:33:39.422Z,8.37
2017-11-12T11:36:13.496Z,7.20
2017-11-12T11:38:48.089Z,7.40
2017-11-12T11:41:22.966Z,7.53
2017-11-12T11:43:57.090Z,6.50
2017-11-12T11:46:30.887Z,7.77
2017-11-12T11:49:04.761Z,7.43
2017-11-12T11:51:38.741Z,7.57
2017-11-12T11:54:12.846Z,7.37
2017-11-12T11:56:46.961Z,7.97
2017-11-12T11:59:21.695Z,8.10
2017-11-12T12:01:56.648Z,6.47
2017-11-12T12:04:30.898Z,8.27
2017-11-12T12:07:05.304Z,8.17
2017-11-12T12:09:39.288Z,7.20
2017-11-12T12:12:13.902Z,7.50
2017-11-12T12:14:47.817Z,6.13
2017-11-12T12:17:21.822Z,7.63
2017-11-12T12:19:56.586Z,7.20
2017-11-12T12:22:31.687Z,8.60
2017-11-12T12:25:05.617Z,8.47
2017-11-12T12:27:39.842Z,8.70
2017-11-12T12:30:14.433Z,8.77
2017-11-12T12:32:48.509Z,8.33
2017-11-12T12:35:23.290Z,9.20
2017-11-12T12:37:58.136Z,9.60
2017-11-12T12:40:32.206Z,9.17
2017-11-12T12:43:06.767Z,8.77
2017-11-12T12:45:41.016Z,8.33
2017-11-12T12:48:14.692Z,9.33
2017-11-12T12:50:48.473Z,7.37
2017-11-12T12:53:22.370Z,8.67
2017-11-12T12:55:56.381Z,8.93
2017-11-12T12:58:31.071Z,7.40
2017-11-12T13:01:05.149Z,5.50
2017-11-12T13:03:40.155Z,6.67
2017-11-12T13:06:14.054Z,6.10
2017-11-12T13:08:47.805Z,6.23
2017-11-12T13:11:21.568Z,6.57
2017-11-12T13:13:55.600Z,7.90
2017-11-12T13:16:29.290Z,6.60
2017-11-12T13:19:03.231Z,5.60
2017-11-12T13:21:37.971Z,4.30
2017-11-12T13:24:12.286Z,4.67
2017-11-12T13:26:45.929Z,4.80
2017-11-12T13:29:19.860Z,4.10
2017-11-12T13:31:54.675Z,3.70
2017-11-12T13:34:29.717Z,3.73
2017-11-12T13:37:03.843Z,4.73
2017-11-12T13:39:38.652Z,4.47
2017-11-12T13:42:13.053Z,3.80
2017-11-12T13:44:46.710Z,6.20
2017-11-12T13:47:21.399Z,3.30
2017-11-12T13:49:55.512Z,3.97
2017-11-12T13:52:30.233Z,3.83
2017-11-12T13:55:04.350Z,5.80
2017-11-12T13:57:39.177Z,6.60
2017-11-12T14:00:14.029Z,4.50
2017-11-12T14:02:48.167Z,5.57
2017-11-12T14:05:22.794Z,4.07
2017-11-12T14:07:56.991Z,6.90
2017-11-12T14:10:30.771Z,5.77
2017-11-12T14:13:04.644Z,4.83
2017-11-12T14:15:38.389Z,4.87
2017-11-12T14:18:12.229Z,6.10
2017-11-12T14:20:47.428Z,4.80
2017-11-12T14:23:21.427Z,4.90
2017-11-12T14:25:55.111Z,5.57
2017-11-12T14:28:28.866Z,5.50
2017-11-12T14:31:02.557Z,5.47
2017-11-12T14:33:37.259Z,7.90
2017-11-12T14:36:12.263Z,7.63
2017-11-12T14:38:46.328Z,6.00
2017-11-12T14:41:20.040Z,5.10
2017-11-12T14:43:54.117Z,5.67
2017-11-12T14:46:28.179Z,6.17
2017-11-12T14:49:02.140Z,5.70
2017-11-12T14:51:35.926Z,5.37
2017-11-12T14:54:10.788Z,8.43
2017-11-12T14:56:44.984Z,15.80
2017-11-12T14:59:19.487Z,6.67
2017-11-12T15:01:53.847Z,7.30
2017-11-12T15:04:27.730Z,7.03
2017-11-12T15:07:01.731Z,5.67
2017-11-12T15:09:35.532Z,6.27
2017-11-12T15:12:09.306Z,8.30
2017-11-12T15:14:43.328Z,12.03
2017-11-12T15:17:17.270Z,6.03
2017-11-12T15:19:50.981Z,6.20
2017-11-12T15:22:24.971Z,6.17
2017-11-12T15:24:58.817Z,7.07
2017-11-12T15:27:32.655Z,6.90
2017-11-12T15:30:07.310Z,6.13
2017-11-12T15:32:41.315Z,7.70
2017-11-12T15:35:15.047Z,23.73
2017-11-12T15:37:49.023Z,9.30
2017-11-12T15:40:22.608Z,6.87
2017-11-12T15:42:56.608Z,6.50
2017-11-12T15:45:30.687Z,5.73
2017-11-12T15:48:04.465Z,7.07
2017-11-12T15:50:38.273Z,12.60
2017-11-12T15:53:13.886Z,5.20
2017-11-12T15:55:48.350Z,4.90
2017-11-12T15:58:22.298Z,4.57
2017-11-12T16:00:56.126Z,5.00
2017-11-12T16:03:29.962Z,6.60
2017-11-12T16:06:03.783Z,11.23
2017-11-12T16:08:38.594Z,6.80
2017-11-12T16:11:12.137Z,8.87
2017-11-12T16:13:46.209Z,8.50
2017-11-12T16:16:19.917Z,8.93
2017-11-12T16:18:53.845Z,7.20
2017-11-12T16:21:28.765Z,6.77
2017-11-12T16:24:02.694Z,6.90
2017-11-12T16:26:36.674Z,11.43
2017-11-12T16:29:10.651Z,8.23
2017-11-12T16:31:44.909Z,7.57
2017-11-12T16:34:19.360Z,22.90
2017-11-12T16:36:54.234Z,9.10
2017-11-12T16:39:29.505Z,6.67
2017-11-12T16:42:03.274Z,6.00
2017-11-12T16:44:37.840Z,7.10
2017-11-12T16:47:11.659Z,6.07
2017-11-12T16:49:45.544Z,6.73
2017-11-12T16:52:19.419Z,6.83
2017-11-12T16:54:53.186Z,5.50
2017-11-12T16:57:27.721Z,5.40
2017-11-12T17:00:02.004Z,5.80
2017-11-12T17:02:36.718Z,5.30
2017-11-12T17:05:12.019Z,6.43
2017-11-12T17:07:46.084Z,6.53
2017-11-12T17:10:19.751Z,6.40
2017-11-12T17:12:54.174Z,7.50
2017-11-12T17:15:28.618Z,14.03
2017-11-12T17:18:03.003Z,7.93
2017-11-12T17:20:36.735Z,8.10
2017-11-12T17:23:10.964Z,8.77
2017-11-12T17:25:45.640Z,9.53
2017-11-12T17:28:20.622Z,9.30
2017-11-12T17:30:54.529Z,9.50
2017-11-12T17:33:29.248Z,10.20
2017-11-12T17:36:03.232Z,29.57
2017-11-12T17:38:37.108Z,10.27
2017-11-12T17:41:11.919Z,11.13
2017-11-12T17:43:46.739Z,10.07
2017-11-12T17:46:21.043Z,10.67
2017-11-12T17:48:55.265Z,11.27
2017-11-12T17:51:28.976Z,11.23
2017-11-12T17:54:04.400Z,12.20
2017-11-12T17:56:38.012Z,16.07
2017-11-12T17:59:11.979Z,12.50
2017-11-12T18:01:46.840Z,13.67
2017-11-12T18:04:21.023Z,13.40
2017-11-12T18:06:54.774Z,13.60
2017-11-12T18:09:29.923Z,13.10
2017-11-12T18:12:04.001Z,13.20
2017-11-12T18:14:38.619Z,15.57
2017-11-12T18:17:13.358Z,15.67
2017-11-12T18:19:47.797Z,14.50
2017-11-12T18:22:22.519Z,15.20
2017-11-12T18:24:57.677Z,17.43
2017-11-12T18:27:32.264Z,15.43
2017-11-12T18:30:06.374Z,20.53
2017-11-12T18:32:40.934Z,17.00
2017-11-12T18:35:15.748Z,16.23
2017-11-12T18:37:50.063Z,16.90
2017-11-12T18:40:23.718Z,17.83
2017-11-12T18:42:58.634Z,15.50
2017-11-12T18:45:33.404Z,15.93
2017-11-12T18:48:08.344Z,18.80
2017-11-12T18:50:57.845Z,16.90
2017-11-12T18:53:32.180Z,15.97
2017-11-12T18:56:08.316Z,20.53
2017-11-12T18:58:43.579Z,17.37
2017-11-12T19:04:31.540Z,17.13
2017-11-12T19:10:14.659Z,17.90
2017-11-12T19:12:48.860Z,20.10
2017-11-12T19:15:22.757Z,18.33
2017-11-12T19:21:04.749Z,17.73
2017-11-12T19:26:48.410Z,20.80
2017-11-12T19:29:23.802Z,20.53
2017-11-12T19:31:57.508Z,20.20
2017-11-12T19:34:31.199Z,20.40
2017-11-12T19:37:05.059Z,21.10
2017-11-12T19:39:39.201Z,25.13
2017-11-12T19:42:13.288Z,22.10
2017-11-12T19:44:47.337Z,23.90
2017-11-12T19:47:21.228Z,22.87
2017-11-12T19:49:55.149Z,22.30
2017-11-12T19:52:29.870Z,24.60
2017-11-12T19:55:03.943Z,25.33
2017-11-12T19:57:37.694Z,23.43
2017-11-12T20:00:12.078Z,24.60
2017-11-12T20:02:46.897Z,23.43
2017-11-12T20:05:20.862Z,25.23
2017-11-12T20:07:54.535Z,25.60
2017-11-12T20:10:28.445Z,23.67
2017-11-12T20:13:03.096Z,24.20
2017-11-12T20:15:37.404Z,27.52
2017-11-12T20:18:11.967Z,25.50
2017-11-12T20:20:46.697Z,24.13
2017-11-12T20:23:21.484Z,24.83
2017-11-12T20:25:56.406Z,33.40
2017-11-12T20:28:31.210Z,26.90
2017-11-12T20:31:05.961Z,24.17
2017-11-12T20:33:39.866Z,24.00
2017-11-12T20:36:13.570Z,23.10
2017-11-12T20:38:47.379Z,25.30
2017-11-12T20:41:21.239Z,23.43
2017-11-12T20:43:55.075Z,25.73
2017-11-12T20:46:33.077Z,24.30
2017-11-12T20:49:06.829Z,23.87
2017-11-12T20:51:41.326Z,24.50
2017-11-12T20:54:15.506Z,23.37
2017-11-12T20:56:49.734Z,31.27
2017-11-12T20:59:23.471Z,26.03
2017-11-12T21:01:57.375Z,25.30
2017-11-12T21:04:32.300Z,26.33
2017-11-12T21:07:06.768Z,23.93
2017-11-12T21:09:40.360Z,24.77
2017-11-12T21:12:14.831Z,22.57
2017-11-12T21:14:49.167Z,22.90
2017-11-12T21:17:22.970Z,23.97
2017-11-12T21:23:01.142Z,22.47
2017-11-12T21:25:34.904Z,22.87
2017-11-12T21:28:08.772Z,22.67
2017-11-12T21:30:43.078Z,21.30
2017-11-12T21:33:18.371Z,21.50
2017-11-12T21:35:57.059Z,21.00
2017-11-12T21:38:31.435Z,21.93
2017-11-12T21:41:05.420Z,20.60
2017-11-12T21:43:39.271Z,20.83
2017-11-12T21:46:13.050Z,20.87
2017-11-12T21:48:47.117Z,20.93
2017-11-12T21:51:20.722Z,21.73
2017-11-12T21:53:54.852Z,20.90
2017-11-12T21:56:28.935Z,19.90
2017-11-12T21:59:02.897Z,20.80
2017-11-12T22:01:36.624Z,20.37
2017-11-12T22:04:10.473Z,19.50
2017-11-12T22:06:44.948Z,20.60
2017-11-12T22:09:19.840Z,19.33
2017-11-12T22:11:53.950Z,20.43
2017-11-12T22:14:28.659Z,21.03
2017-11-12T22:17:02.946Z,19.70
2017-11-12T22:19:37.031Z,20.80
2017-11-12T22:22:10.707Z,19.40
2017-11-12T22:24:44.761Z,19.97
2017-11-12T22:27:18.503Z,20.83
2017-11-12T22:29:53.311Z,19.97
2017-11-12T22:32:27.622Z,22.83
2017-11-12T22:35:01.464Z,20.47
2017-11-12T22:37:35.235Z,19.80
2017-11-12T22:40:09.175Z,21.83
2017-11-12T22:42:43.700Z,20.73
2017-11-12T22:45:17.710Z,22.03
2017-11-12T22:47:51.911Z,22.47
2017-11-12T22:50:26.153Z,21.10
2017-11-12T22:53:00.547Z,18.40
2017-11-12T22:55:34.366Z,20.37
2017-11-12T22:58:08.261Z,22.27
2017-11-12T23:00:42.114Z,20.30
2017-11-12T23:03:16.908Z,21.13
2017-11-12T23:05:52.208Z,19.07
2017-11-12T23:08:27.282Z,22.37
2017-11-12T23:11:02.072Z,21.37
2017-11-12T23:13:36.123Z,19.87
2017-11-12T23:16:09.818Z,20.23
2017-11-12T23:18:43.541Z,20.77
2017-11-12T23:21:18.065Z,21.80
2017-11-12T23:23:51.967Z,20.73
2017-11-12T23:26:25.516Z,19.80
2017-11-12T23:28:59.341Z,22.63
2017-11-12T23:31:33.115Z,22.00
2017-11-12T23:34:06.940Z,22.53
2017-11-12T23:36:40.765Z,21.50
2017-11-12T23:39:14.478Z,22.00
2017-11-12T23:41:48.261Z,21.53
2017-11-12T23:44:22.101Z,22.10
2017-11-12T23:46:55.951Z,21.73
2017-11-12T23:49:30.466Z,19.27
2017-11-12T23:52:04.633Z,21.10
2017-11-12T23:54:38.747Z,20.67
2017-11-12T23:57:12.532Z,21.47
2017-11-12T23:59:47.487Z,20.80
